x

East Superior -70 Nm Ne Marquette, Mi (45004) Wave Buoy

1:50pm - Fri 24th Nov 2017 All times are CST. -6 hours from GMT.

  • Sig Wave height 4.3ft
  • Swell Direction
  • Peak Period 6s
  • Average Period 5s
  • Wind
    9mph, 11mph gusts
  • Air Temp 42°f
  • Sea Pressure 988.7mb
  • East Superior -70 Nm Ne Marquette, Mi
  • East Superior -70 Nm Ne Marquette, Mi

More Historic Weather Station data

Upgrade to MSW Pro to gain access to the past 30 days of data for over 8000 Wavebouys and Weather Stations around the globe.

Join

Comparision Forecast

View Surf forecast
   
Fri 11/24 1:50pm 4.5ft 6s 5s 9 11 mph 988.7mb 42f
12:50pm 4.5ft 6s 5s 13 16 mph 989mb 43f
11:50am 4.5ft 6s 5s 13 18 mph 989.3mb 42f
10:50am 5ft 7s 5s 13 16 mph 989.4mb 42f
9:50am 6ft 6s 5s 20 25 mph 989.4mb 43f
8:50am 6ft 7s 5s 20 25 mph 990.1mb 43f
7:50am 6.5ft 7s 5s 22 27 mph 990.2mb 42f
6:50am 7ft 7s 5s 25 29 mph 990.2mb 42f
5:50am 7ft 7s 5s 27 31 mph 990.9mb 42f
4:50am 7ft 7s 5s 29 34 mph 991.7mb 41f
3:50am 7ft 6s 5s 29 36 mph 993.1mb 41f
2:50am 6.5ft 6s 5s 29 36 mph 994.8mb 40f
1:50am 5ft 5s 4s 29 34 mph 997mb 40f
12:50am 3.5ft 4s 4s 27 31 mph 998.7mb 40f
Thu 11/23 11:50pm 2.5ft 3s 4s 25 29 mph 1001.2mb 40f
10:50pm 2.5ft 5s 4s 22 25 mph 1003.4mb 38f
9:50pm 2.5ft 5s 4s 16 18 mph 1004.8mb 36f
8:50pm 2.5ft 5s 4s 11 13 mph 1006mb 35f
7:50pm 3ft 5s 4s 2 4 mph 1007.6mb 33f
6:50pm 3.5ft 5s 4s  -  2 mph 1008.6mb 33f
5:50pm 3.5ft 6s 5s 9 11 mph 1009.2mb 33f
4:50pm 4.5ft 5s 5s 13 18 mph 1009.1mb 34f
3:50pm 5ft 6s 5s 18 20 mph 1009mb 34f
2:50pm 5ft 5s 5s 18 22 mph 1008.7mb 33f
1:50pm 5ft 6s 5s 20 25 mph 1008.5mb 33f
12:50pm 5.5ft 6s 5s 22 27 mph 1008.5mb 33f
11:50am 6ft 7s 5s 20 25 mph 1008.4mb 33f
9:50am 6ft 5s 5s 27 34 mph 1008.6mb 35f
8:50am 6ft 6s 5s 22 27 mph 1009.4mb 35f
7:50am 6ft 7s 5s 22 27 mph 1009.3mb 35f
6:50am 6ft 7s 5s 20 25 mph 1009.5mb 35f
5:50am 6ft 6s 5s 20 27 mph 1010.1mb 34f
4:50am 5.5ft 7s 5s 22 27 mph 1010.9mb 33f
3:50am 5.5ft 6s 5s 20 27 mph 1011.4mb 33f
2:50am 5ft 5s 5s 22 27 mph 1011.6mb 33f
1:50am 5ft 5s 5s 22 27 mph 1012.3mb 33f
12:50am 5ft 5s 5s 22 27 mph 1012.8mb 32f
Wed 11/22 11:50pm 5ft 6s 5s 20 22 mph 1014.1mb 33f
10:50pm 4.5ft 5s 4s 20 25 mph 1014.3mb 33f
9:50pm 4ft 6s 4s 20 22 mph 1015.3mb 32f
8:50pm 4.5ft 6s 5s 20 25 mph 1015.6mb 32f
7:50pm 4.5ft 6s 5s 20 25 mph 1016.2mb 32f
6:50pm 4.5ft 5s 4s 18 20 mph 1017.8mb 31f
5:50pm 4.5ft 6s 4s 16 22 mph 1018.9mb 31f
4:50pm 3.5ft 5s 4s 18 22 mph 1018.8mb 31f
3:50pm 3.5ft 5s 4s 18 25 mph 1019.4mb 31f
2:50pm 3.5ft 5s 4s 16 20 mph 1019.8mb 31f
1:50pm 3.5ft 5s 4s 16 20 mph 1020.3mb 31f
12:50pm 3.5ft 4s 4s 18 22 mph 1020.6mb 31f
11:50am 3.5ft 5s 4s 18 25 mph 1021.7mb 30f
10:50am 3ft 5s 4s 18 20 mph 1021.9mb 31f
9:50am 3.5ft 6s 4s 13 20 mph 1022.4mb 30f
8:50am 4.5ft 6s 5s 9 16 mph 1022.7mb 30f
7:50am 4.5ft 6s 5s 13 16 mph 1022.6mb 29f
6:50am 4.5ft 6s 5s 16 22 mph 1022.3mb 29f
5:50am 5ft 6s 5s 16 20 mph 1021.6mb 29f
4:50am 5ft 6s 5s 18 25 mph 1021.6mb 29f
3:50am 5.5ft 6s 5s 18 25 mph 1021.1mb 28f
2:50am 6ft 7s 5s 22 25 mph 1020.8mb 28f
1:50am 6ft 7s 5s 25 29 mph 1020.4mb 27f
12:50am 6ft 7s 5s 25 29 mph 1019.4mb 27f
Tue 11/21 11:50pm 6ft 7s 5s 22 29 mph 1019mb 28f
10:50pm 6.5ft 7s 5s 22 29 mph 1018.4mb 27f
9:50pm 7ft 7s 5s 25 31 mph 1017.8mb 27f
8:50pm 8ft 7s 6s 25 29 mph 1017.1mb 26f
7:50pm 7.5ft 7s 6s 25 31 mph 1016.5mb 26f
6:50pm 9.5ft 8s 6s 29 34 mph 1015.9mb 26f
5:50pm 8ft 8s 6s 27 36 mph 1014.8mb 27f
4:50pm 9ft 8s 6s 25 29 mph 1013.3mb 27f
3:50pm 11ft 8s 6s 27 34 mph 1011.9mb 27f
2:50pm 10ft 8s 6s 29 38 mph 1010.2mb 26f
1:50pm 12ft 8s 7s 31 38 mph 1008.1mb 25f
12:50pm 12ft 8s 6s 31 40 mph 1005.9mb 26f
11:50am 12ft 8s 7s 34 38 mph 1003.3mb 26f
10:50am 11.5ft 8s 6s 31 38 mph 1001.1mb 27f
9:50am 10.5ft 8s 6s 34 40 mph 998.7mb 29f
8:50am 11.5ft 9s 6s 34 43 mph 996.1mb 31f
7:50am 11.5ft 8s 6s 36 43 mph 993.9mb 35f
6:50am 10ft 8s 6s 34 40 mph 992.1mb 37f
5:50am 9ft 7s 5s 34 40 mph 990.3mb 37f
4:50am 6.5ft 6s 5s 34 40 mph 989.3mb 37f
3:50am 6ft 5s 5s 25 31 mph 988.8mb 42f
2:50am 5ft 6s 4s 31 38 mph 988.1mb 42f
1:50am 5ft 6s 5s 25 31 mph 987.9mb 43f
12:50am 6ft 6s 5s 22 27 mph 987.7mb 43f
Mon 11/20 11:50pm 6.5ft 6s 5s 20 25 mph 988.2mb 42f
10:50pm 6.5ft 7s 5s 22 27 mph 988.8mb 42f
9:50pm 7ft 6s 5s 22 27 mph 989.9mb 42f
8:50pm 7ft 6s 5s 25 29 mph 991.2mb 42f